Quailtown, Indiana
Current Conditions -  °F | °C
As of 2:10 PM on Thursday 27 Nov 2014 (Local Time) from KGEZ Reporting Station
Overcast Overcast  
Wind Chill: 23°   Ceiling: 6000
Heat Index: 33°   Visibility: 10mi
Dew Point: 22°   Wind: 15mph
Humidity: 64%   Direction: 290°WNW
Pressure: 30.3"   Gusts: NA
Location:  39.1743°N, 85.6083°W
Report Text: KGEZ 271910Z AUTO 29013KT 10SM FEW021 SCT046 OVC060 01/M06 A3030 RMK AO2 T00061056
Loading
Personal Weather Stations






























Interactive Weather Map New forecast layout! Learn more

10-Day Weather Forecast

Advertisements
Track Severe Weather on mobile